Time;durP1;ratioP1;P1;durP2;ratioP2;P2;SDS_P1;SDS_P2;PMS_P1;PMS_P2;Temp;Humidity;BMP_temperature;BMP_pressure;BME280_temperature;BME280_humidity;BME280_pressure;Samples;Min_cycle;Max_cycle;Signal;HPM_P1;HPM_P2
2023/01/31 00:02:58;;;;;;;20.60;8.93;;;;;;;-144.31;100.00;58022.63;5035056;28;20049;-54
2023/01/31 00:06:28;;;;;;;22.33;9.02;;;;;;;-144.31;100.00;58022.63;5034159;28;20037;-53
2023/01/31 00:09:53;;;;;;;22.10;8.77;;;;;;;-144.31;100.00;58022.63;5035144;28;20067;-57
2023/01/31 00:13:17;;;;;;;18.05;7.55;;;;;;;-144.31;100.00;58022.63;5036361;28;20148;-56
2023/01/31 00:16:41;;;;;;;15.05;7.57;;;;;;;-144.31;100.00;58022.63;5038640;28;20034;-55
2023/01/31 00:20:05;;;;;;;18.85;8.18;;;;;;;-144.31;100.00;58022.63;5034375;28;20121;-52
2023/01/31 00:23:29;;;;;;;18.92;8.43;;;;;;;-144.31;100.00;58022.63;5038034;28;20497;-55
2023/01/31 00:26:55;;;;;;;17.92;8.13;;;;;;;-144.31;100.00;58022.63;5035914;28;20049;-58
2023/01/31 00:30:19;;;;;;;;;;;;;;;-144.31;100.00;58022.63;5020887;28;20045;-59
2023/01/31 00:33:44;;;;;;;16.38;7.80;;;;;;;-144.31;100.00;58022.63;5041670;28;20030;-56
2023/01/31 00:37:10;;;;;;;17.05;7.78;;;;;;;-144.31;100.00;58022.63;5034339;28;20033;-57
2023/01/31 00:40:34;;;;;;;17.65;8.13;;;;;;;-144.31;100.00;58022.63;5036758;28;20069;-53
2023/01/31 00:43:58;;;;;;;12.32;7.50;;;;;;;-144.31;100.00;58022.63;5030727;28;20375;-57
2023/01/31 00:47:22;;;;;;;16.73;8.27;;;;;;;-144.31;100.00;58022.63;5033737;28;20132;-57
2023/01/31 00:50:46;;;;;;;13.82;7.93;;;;;;;-144.31;100.00;58022.63;5035518;28;20445;-55
2023/01/31 00:54:10;;;;;;;20.58;9.10;;;;;;;-144.31;100.00;58022.63;5033834;28;20041;-55
2023/01/31 00:57:34;;;;;;;20.55;7.88;;;;;;;-144.31;100.00;58022.63;5037012;28;20037;-55
2023/01/31 01:01:08;;;;;;;15.45;7.88;;;;;;;-144.31;100.00;58022.63;5041654;28;20041;-57
2023/01/31 01:04:33;;;;;;;21.30;8.50;;;;;;;-144.31;100.00;58022.63;5051740;28;20095;-55
2023/01/31 01:07:57;;;;;;;15.82;7.93;;;;;;;-144.31;100.00;58022.63;5033875;28;20478;-54
2023/01/31 01:11:22;;;;;;;18.17;8.02;;;;;;;-144.31;100.00;58022.63;5033178;28;20524;-53
2023/01/31 01:14:46;;;;;;;17.17;7.57;;;;;;;-144.31;100.00;58022.63;5033743;28;20095;-56
2023/01/31 01:18:10;;;;;;;15.40;7.93;;;;;;;-144.31;100.00;58022.63;5035075;28;20269;-57
2023/01/31 01:21:37;;;;;;;16.92;8.23;;;;;;;-144.31;100.00;58022.63;5019946;28;20067;-57
2023/01/31 01:25:02;;;;;;;14.10;8.85;;;;;;;-144.31;100.00;58022.63;5041392;28;20040;-57
2023/01/31 01:28:26;;;;;;;20.13;10.07;;;;;;;-144.31;100.00;58022.63;5038451;28;20064;-56
2023/01/31 01:31:50;;;;;;;19.17;8.68;;;;;;;-144.31;100.00;58022.63;5032237;28;20090;-50
2023/01/31 01:35:14;;;;;;;18.63;7.57;;;;;;;-144.31;100.00;58022.63;5030088;28;20118;-53
2023/01/31 01:38:39;;;;;;;15.45;7.80;;;;;;;-144.31;100.00;58022.63;5040733;28;20068;-57
2023/01/31 01:42:04;;;;;;;19.08;7.50;;;;;;;-144.31;100.00;58022.63;5048948;28;20072;-54
2023/01/31 01:45:44;;;;;;;15.70;7.30;;;;;;;-144.31;100.00;58022.63;5036288;28;20052;-54
2023/01/31 01:49:13;;;;;;;17.50;7.70;;;;;;;-144.31;100.00;58022.63;5033498;28;20123;-56
2023/01/31 01:52:58;;;;;;;16.20;7.35;;;;;;;-144.31;100.00;58022.63;5039846;28;20128;-56
2023/01/31 01:56:42;;;;;;;17.97;7.63;;;;;;;-144.31;100.00;58022.63;5035401;28;21158;-56
2023/01/31 02:00:32;;;;;;;17.80;7.05;;;;;;;-144.31;100.00;58022.63;5034248;28;20292;-55
2023/01/31 02:03:58;;;;;;;15.45;7.00;;;;;;;-144.31;100.00;58022.63;5033166;28;20107;-57
2023/01/31 02:07:22;;;;;;;21.77;7.28;;;;;;;-144.31;100.00;58022.63;5033083;28;20055;-58
2023/01/31 02:10:52;;;;;;;15.20;7.15;;;;;;;-144.31;100.00;58022.63;5040328;28;20052;-58
2023/01/31 02:14:17;;;;;;;19.15;7.32;;;;;;;-144.31;100.00;58022.63;5032931;28;20044;-56
2023/01/31 02:17:41;;;;;;;16.47;7.70;;;;;;;-144.31;100.00;58022.63;5029958;28;20072;-55
2023/01/31 02:21:23;;;;;;;16.83;7.25;;;;;;;-144.31;100.00;58022.63;5031530;28;20088;-55
2023/01/31 02:25:28;;;;;;;16.13;7.07;;;;;;;-144.31;100.00;58022.63;5029473;28;20039;-54
2023/01/31 02:28:53;;;;;;;;;;;;;;;-144.31;100.00;58022.63;5031272;28;20136;-58
2023/01/31 02:32:36;;;;;;;20.02;8.35;;;;;;;-144.31;100.00;58022.63;5029817;28;19921;-58
2023/01/31 02:36:18;;;;;;;16.02;7.32;;;;;;;-144.31;100.00;58022.63;5033725;28;20378;-52
2023/01/31 02:40:14;;;;;;;17.40;7.40;;;;;;;-144.31;100.00;58022.63;5035640;28;20088;-56
2023/01/31 02:47:36;;;;;;;18.85;7.78;;;;;;;-144.31;100.00;58022.63;5032875;28;20144;-58
2023/01/31 02:51:09;;;;;;;15.25;7.63;;;;;;;-144.31;100.00;58022.63;5031479;28;21360;-56
2023/01/31 02:58:23;;;;;;;19.42;7.63;;;;;;;-144.31;100.00;58022.63;5032071;28;20087;-53
2023/01/31 03:01:54;;;;;;;18.75;7.20;;;;;;;-144.31;100.00;58022.63;5039476;28;20037;-58
2023/01/31 03:05:19;;;;;;;16.35;7.20;;;;;;;-144.31;100.00;58022.63;5040311;28;20049;-52
2023/01/31 03:08:56;;;;;;;14.10;7.03;;;;;;;-144.31;100.00;58022.63;5038038;28;20463;-53
2023/01/31 03:12:22;;;;;;;16.60;7.38;;;;;;;-144.31;100.00;58022.63;5035078;28;20127;-57
2023/01/31 03:20:14;;;;;;;18.92;7.40;;;;;;;-144.31;100.00;58022.63;5034842;28;20044;-54
2023/01/31 03:23:50;;;;;;;17.77;8.10;;;;;;;-144.31;100.00;58022.63;5032639;28;20098;-53
2023/01/31 03:27:15;;;;;;;;;;;;;;;-144.31;100.00;58022.63;5045093;28;20033;-54
2023/01/31 03:30:45;;;;;;;16.40;8.50;;;;;;;-144.31;100.00;58022.63;5044636;28;19917;-57
2023/01/31 03:34:21;;;;;;;16.70;7.47;;;;;;;-144.31;100.00;58022.63;5042771;28;20033;-54
2023/01/31 03:37:57;;;;;;;;;;;;;;;-144.31;100.00;58022.63;5036904;28;20045;-54
2023/01/31 03:41:40;;;;;;;24.75;8.55;;;;;;;-144.31;100.00;58022.63;5035407;28;19921;-54
2023/01/31 03:45:19;;;;;;;23.30;9.02;;;;;;;-144.31;100.00;58022.63;5034014;28;20056;-53
2023/01/31 03:48:48;;;;;;;15.20;8.25;;;;;;;-144.31;100.00;58022.63;5034116;28;20069;-54
2023/01/31 03:52:22;;;;;;;16.38;7.93;;;;;;;-144.31;100.00;58022.63;5057435;28;20336;-55
2023/01/31 03:55:52;;;;;;;23.13;8.57;;;;;;;-144.31;100.00;58022.63;5051797;28;20038;-51
2023/01/31 03:59:23;;;;;;;17.40;8.35;;;;;;;-144.31;100.00;58022.63;5036740;28;20639;-56
2023/01/31 04:02:52;;;;;;;17.00;8.63;;;;;;;-144.31;100.00;58022.63;5042500;28;20041;-58
2023/01/31 04:06:20;;;;;;;24.67;10.57;;;;;;;-144.31;100.00;58022.63;5031486;28;20438;-55
2023/01/31 04:09:44;;;;;;;21.25;9.27;;;;;;;-144.31;100.00;58022.63;5039217;28;20049;-54
2023/01/31 04:13:10;;;;;;;19.75;8.82;;;;;;;-144.31;100.00;58022.63;5035788;28;20128;-55
2023/01/31 04:16:34;;;;;;;21.58;8.93;;;;;;;-144.31;100.00;58022.63;5036869;28;20045;-54
2023/01/31 04:19:58;;;;;;;23.17;8.35;;;;;;;-144.31;100.00;58022.63;5035495;28;20052;-53
2023/01/31 04:23:23;;;;;;;17.75;8.48;;;;;;;-144.31;100.00;58022.63;5035094;28;20041;-56
2023/01/31 04:26:47;;;;;;;26.70;9.25;;;;;;;-144.31;100.00;58022.63;5041418;28;20037;-55
2023/01/31 04:30:11;;;;;;;23.73;9.88;;;;;;;-144.31;100.00;58022.63;5032971;28;20033;-57
2023/01/31 04:33:35;;;;;;;18.17;8.88;;;;;;;-144.31;100.00;58022.63;5033961;28;20068;-57
2023/01/31 04:36:59;;;;;;;23.27;10.00;;;;;;;-144.31;100.00;58022.63;5038162;28;20116;-57
2023/01/31 04:40:23;;;;;;;24.33;9.18;;;;;;;-144.31;100.00;58022.63;5031977;28;20059;-55
2023/01/31 04:43:48;;;;;;;23.17;9.63;;;;;;;-144.31;100.00;58022.63;5036674;28;20044;-53
2023/01/31 04:47:12;;;;;;;23.50;9.65;;;;;;;-144.31;100.00;58022.63;5032594;28;20152;-60
2023/01/31 04:50:36;;;;;;;16.73;8.93;;;;;;;-144.31;100.00;58022.63;5033595;28;20049;-55
2023/01/31 04:54:00;;;;;;;20.70;9.05;;;;;;;-144.31;100.00;58022.63;5032228;28;20477;-52
2023/01/31 04:57:24;;;;;;;19.73;8.90;;;;;;;-144.31;100.00;58022.63;5033790;28;20045;-56
2023/01/31 05:00:47;;;;;;;22.23;8.95;;;;;;;-144.31;100.00;58022.63;5035962;28;20494;-54
2023/01/31 05:04:11;;;;;;;19.58;9.10;;;;;;;-144.31;100.00;58022.63;5033150;28;20045;-57
2023/01/31 05:07:36;;;;;;;26.88;9.32;;;;;;;-144.31;100.00;58022.63;5034042;28;20124;-54
2023/01/31 05:11:01;;;;;;;19.83;9.43;;;;;;;-144.31;100.00;58022.63;5030806;28;20049;-57
2023/01/31 05:14:28;;;;;;;25.50;10.25;;;;;;;-144.31;100.00;58022.63;5036097;28;21024;-56
2023/01/31 05:17:52;;;;;;;21.38;10.05;;;;;;;-144.31;100.00;58022.63;5033860;28;20037;-53
2023/01/31 05:21:16;;;;;;;25.35;10.40;;;;;;;-144.31;100.00;58022.63;5033116;28;20650;-57
2023/01/31 05:24:40;;;;;;;21.40;9.00;;;;;;;-144.31;100.00;58022.63;5033731;28;20072;-54
2023/01/31 05:28:04;;;;;;;23.45;9.93;;;;;;;-144.31;100.00;58022.63;5032912;28;20801;-53
2023/01/31 05:31:28;;;;;;;20.73;10.30;;;;;;;-144.31;100.00;58022.63;5032674;28;20124;-54
2023/01/31 05:34:52;;;;;;;21.77;9.60;;;;;;;-144.31;100.00;58022.63;5032270;28;20069;-53
2023/01/31 05:38:16;;;;;;;25.70;10.45;;;;;;;-144.31;100.00;58022.63;5032717;28;20048;-52
2023/01/31 05:41:40;;;;;;;27.08;10.15;;;;;;;-144.31;100.00;58022.63;5033793;28;20123;-55
2023/01/31 05:45:02;;;;;;;28.23;10.32;;;;;;;-144.31;100.00;58022.63;5032137;28;20042;-52
2023/01/31 05:48:26;;;;;;;26.50;11.25;;;;;;;-144.31;100.00;58022.63;5033090;28;20519;-58
2023/01/31 05:51:50;;;;;;;22.85;10.05;;;;;;;-144.31;100.00;58022.63;5041713;28;20037;-54
2023/01/31 05:55:17;;;;;;;26.83;10.68;;;;;;;-144.31;100.00;58022.63;5032756;28;20037;-58
2023/01/31 05:58:41;;;;;;;26.70;11.05;;;;;;;-144.31;100.00;58022.63;5035046;28;20166;-52
2023/01/31 06:02:07;;;;;;;25.92;11.35;;;;;;;-144.31;100.00;58022.63;5033833;28;20481;-58
2023/01/31 06:05:31;;;;;;;26.95;13.20;;;;;;;-144.31;100.00;58022.63;5033656;28;20037;-54
2023/01/31 06:08:55;;;;;;;22.67;11.55;;;;;;;-144.31;100.00;58022.63;5039124;28;20115;-52
2023/01/31 06:12:19;;;;;;;25.80;10.40;;;;;;;-144.31;100.00;58022.63;5031134;28;20037;-56
2023/01/31 06:15:43;;;;;;;22.95;10.05;;;;;;;-144.31;100.00;58022.63;5031049;28;20103;-56
2023/01/31 06:19:07;;;;;;;20.70;9.13;;;;;;;-144.31;100.00;58022.63;5033513;28;20045;-53
2023/01/31 06:22:31;;;;;;;22.90;9.05;;;;;;;-144.31;100.00;58022.63;5033858;28;20037;-53
2023/01/31 06:25:55;;;;;;;19.88;8.70;;;;;;;-144.31;100.00;58022.63;5032943;28;20029;-54
2023/01/31 06:29:20;;;;;;;18.65;9.52;;;;;;;-144.31;100.00;58022.63;5031117;28;20634;-55
2023/01/31 06:32:43;;;;;;;31.05;10.02;;;;;;;-144.31;100.00;58022.63;5035265;28;20112;-54
2023/01/31 06:36:07;;;;;;;19.67;8.85;;;;;;;-144.31;100.00;58022.63;5031943;28;20034;-55
2023/01/31 06:39:31;;;;;;;24.48;9.38;;;;;;;-144.31;100.00;58022.63;5038417;28;20518;-53
2023/01/31 06:42:56;;;;;;;26.60;11.65;;;;;;;-144.31;100.00;58022.63;5035910;28;20097;-57
2023/01/31 06:46:20;;;;;;;20.95;8.90;;;;;;;-144.31;100.00;58022.63;5036595;28;20037;-53
2023/01/31 06:49:44;;;;;;;21.92;7.95;;;;;;;-144.31;100.00;58022.63;5036533;28;20045;-53
2023/01/31 06:53:07;;;;;;;20.98;8.90;;;;;;;-144.31;100.00;58022.63;5037942;28;20790;-56
2023/01/31 06:56:31;;;;;;;16.15;8.30;;;;;;;-144.31;100.00;58022.63;5036729;28;20071;-53
2023/01/31 06:59:55;;;;;;;21.23;8.55;;;;;;;-144.31;100.00;58022.63;5037827;28;20069;-56
2023/01/31 07:03:19;;;;;;;20.08;8.07;;;;;;;-144.31;100.00;58022.63;5037093;28;20128;-57
2023/01/31 07:06:43;;;;;;;19.13;8.65;;;;;;;-144.31;100.00;58022.63;5037101;28;20072;-56
2023/01/31 07:10:10;;;;;;;18.42;8.35;;;;;;;-144.31;100.00;58022.63;5037601;28;20041;-54
2023/01/31 07:13:34;;;;;;;18.10;8.35;;;;;;;-144.31;100.00;58022.63;5035492;28;20098;-55
2023/01/31 07:16:58;;;;;;;22.92;8.32;;;;;;;-144.31;100.00;58022.63;5036198;28;20048;-58
2023/01/31 07:20:23;;;;;;;19.48;8.77;;;;;;;-144.31;100.00;58022.63;5044237;28;20037;-57
2023/01/31 07:23:57;;;;;;;20.05;8.82;;;;;;;-144.31;100.00;58022.63;5036614;28;20099;-56
2023/01/31 07:27:21;;;;;;;16.88;8.93;;;;;;;-144.31;100.00;58022.63;5034191;28;20069;-57
2023/01/31 07:30:46;;;;;;;37.90;14.55;;;;;;;-144.31;100.00;58022.63;5034859;28;20033;-54
2023/01/31 07:34:10;;;;;;;37.25;14.52;;;;;;;-144.31;100.00;58022.63;5035505;28;20139;-57
2023/01/31 07:37:34;;;;;;;37.35;15.30;;;;;;;-144.31;100.00;58022.63;5044050;28;20402;-55
2023/01/31 07:40:59;;;;;;;37.53;17.05;;;;;;;-144.31;100.00;58022.63;5035634;28;20045;-53
2023/01/31 07:44:24;;;;;;;31.52;15.45;;;;;;;-144.31;100.00;58022.63;5035910;28;20053;-56
2023/01/31 07:47:48;;;;;;;33.67;15.20;;;;;;;-144.31;100.00;58022.63;5035841;28;20120;-57
2023/01/31 07:51:12;;;;;;;27.42;12.85;;;;;;;-144.31;100.00;58022.63;5032555;28;20037;-55
2023/01/31 07:54:37;;;;;;;26.90;12.07;;;;;;;-144.31;100.00;58022.63;5034414;28;20049;-57
2023/01/31 07:58:00;;;;;;;33.40;16.23;;;;;;;-144.31;100.00;58022.63;5033857;28;20034;-57
2023/01/31 08:05:10;;;;;;;37.63;19.48;;;;;;;-144.31;100.00;58022.63;5033140;28;20041;-58
2023/01/31 08:08:35;;;;;;;37.08;17.25;;;;;;;-144.31;100.00;58022.63;5042315;28;20114;-53
2023/01/31 08:11:59;;;;;;;34.10;16.05;;;;;;;-144.31;100.00;58022.63;5033907;28;20037;-58
2023/01/31 08:15:23;;;;;;;31.80;15.63;;;;;;;-144.31;100.00;58022.63;5030998;28;20116;-56
2023/01/31 08:18:48;;;;;;;26.92;11.73;;;;;;;-144.31;100.00;58022.63;5042538;28;20041;-55
2023/01/31 08:22:12;;;;;;;24.50;10.95;;;;;;;-144.31;100.00;58022.63;5035985;28;20433;-55
2023/01/31 08:25:36;;;;;;;26.02;9.90;;;;;;;-144.31;100.00;58022.63;5034052;28;20045;-57
2023/01/31 08:29:00;;;;;;;24.05;9.43;;;;;;;-144.31;100.00;58022.63;5037512;28;20041;-55
2023/01/31 08:32:25;;;;;;;46.90;13.55;;;;;;;-144.31;100.00;58022.63;5033583;28;20180;-56
2023/01/31 08:35:52;;;;;;;19.95;8.52;;;;;;;-144.31;100.00;58022.63;5035878;28;20033;-53
2023/01/31 08:39:16;;;;;;;12.20;6.53;;;;;;;-144.31;100.00;58022.63;5034332;28;20048;-53
2023/01/31 08:42:39;;;;;;;13.98;6.47;;;;;;;-144.31;100.00;58022.63;5034076;28;20051;-54
2023/01/31 08:46:05;;;;;;;14.55;6.07;;;;;;;-144.31;100.00;58022.63;5033997;28;20048;-51
2023/01/31 08:49:35;;;;;;;15.27;6.03;;;;;;;-144.31;100.00;58022.63;5032206;28;20124;-53
2023/01/31 08:53:01;;;;;;;15.15;6.70;;;;;;;-144.31;100.00;58022.63;5035581;28;20040;-56
2023/01/31 08:56:27;;;;;;;14.70;6.53;;;;;;;-144.31;100.00;58022.63;5031786;28;20041;-58
2023/01/31 08:59:51;;;;;;;14.82;5.78;;;;;;;-144.31;100.00;58022.63;5034880;28;20504;-56
2023/01/31 09:03:15;;;;;;;17.08;6.00;;;;;;;-144.31;100.00;58022.63;5034665;28;20041;-56
2023/01/31 09:06:40;;;;;;;19.42;6.47;;;;;;;-144.31;100.00;58022.63;5034476;28;20553;-55
2023/01/31 09:10:11;;;;;;;18.90;6.50;;;;;;;-144.31;100.00;58022.63;5062378;22;20095;-89
2023/01/31 09:13:36;;;;;;;16.65;6.57;;;;;;;-144.31;100.00;58022.63;5043338;28;20039;-88
2023/01/31 09:17:06;;;;;;;16.08;6.68;;;;;;;-144.31;100.00;58022.63;5040351;28;20032;-88
2023/01/31 09:20:31;;;;;;;18.85;6.93;;;;;;;-144.31;100.00;58022.63;5060082;28;20033;-88
2023/01/31 09:28:23;;;;;;;15.45;7.47;;;;;;;-144.31;100.00;58022.63;5064489;28;20056;-86
2023/01/31 09:36:17;;;;;;;17.30;6.00;;;;;;;-144.31;100.00;58022.63;5060211;28;20067;-86
2023/01/31 09:39:41;;;;;;;14.38;6.88;;;;;;;-144.31;100.00;58022.63;5043601;28;20061;-86
2023/01/31 09:43:10;;;;;;;17.80;7.03;;;;;;;-144.31;100.00;58022.63;5003469;28;20049;-88
2023/01/31 09:46:45;;;;;;;15.73;6.38;;;;;;;-144.31;100.00;58022.63;5053241;28;20037;-87
2023/01/31 09:50:15;;;;;;;15.55;6.57;;;;;;;-144.31;100.00;58022.63;5046445;28;20044;-86
2023/01/31 09:53:40;;;;;;;16.65;5.78;;;;;;;-144.31;100.00;58022.63;5062939;28;20029;-88
2023/01/31 09:57:36;;;;;;;15.75;5.93;;;;;;;-144.31;100.00;58022.63;5047213;28;20481;-87
2023/01/31 10:01:17;;;;;;;16.50;6.57;;;;;;;-144.31;100.00;58022.63;5000696;28;20099;-88
2023/01/31 10:05:02;;;;;;;19.70;7.05;;;;;;;-144.31;100.00;58022.63;5017262;28;20050;-87
2023/01/31 10:08:50;;;;;;;14.43;6.22;;;;;;;-144.31;100.00;58022.63;4999239;28;20046;-88
2023/01/31 10:12:27;;;;;;;16.67;6.47;;;;;;;-144.31;100.00;58022.63;5014744;28;20383;-88
2023/01/31 10:15:58;;;;;;;;;;;;;;;-144.31;100.00;58022.63;5015500;28;20501;-88
2023/01/31 10:19:43;;;;;;;21.23;6.72;;;;;;;-144.31;100.00;58022.63;5012744;28;19921;-87
2023/01/31 10:23:37;;;;;;;22.77;6.82;;;;;;;-144.31;100.00;58022.63;5032613;28;20117;-88
2023/01/31 10:27:13;;;;;;;17.80;6.70;;;;;;;-144.31;100.00;58022.63;5034626;28;20077;-87
2023/01/31 10:30:47;;;;;;;11.33;5.17;;;;;;;-144.31;100.00;58022.63;5033889;28;20030;-87
2023/01/31 10:34:33;;;;;;;14.38;5.28;;;;;;;-144.31;100.00;58022.63;5034580;28;20025;-88
2023/01/31 10:38:43;;;;;;;19.70;4.82;;;;;;;-144.31;100.00;58022.63;5038163;28;20041;-86
2023/01/31 10:42:26;;;;;;;13.35;4.78;;;;;;;-144.31;100.00;58022.63;5009990;28;20084;-87
2023/01/31 10:45:58;;;;;;;13.07;4.55;;;;;;;-144.31;100.00;58022.63;4999298;28;20060;-87
2023/01/31 10:49:24;;;;;;;15.55;5.18;;;;;;;-144.31;100.00;58022.63;5049721;28;20043;-86
2023/01/31 10:53:07;;;;;;;12.57;4.73;;;;;;;-144.31;100.00;58022.63;5044268;28;20133;-87
2023/01/31 10:56:45;;;;;;;14.40;5.07;;;;;;;-144.31;100.00;58022.63;5043576;28;20063;-88
2023/01/31 11:00:16;;;;;;;19.58;5.95;;;;;;;-144.31;100.00;58022.63;5041736;28;20040;-87
2023/01/31 11:03:51;;;;;;;11.73;4.53;;;;;;;-144.31;100.00;58022.63;5046963;28;20038;-86
2023/01/31 11:07:18;;;;;;;17.10;6.32;;;;;;;-144.31;100.00;58022.63;5046416;28;20037;-87
2023/01/31 11:10:53;;;;;;;22.63;5.47;;;;;;;-144.31;100.00;58022.63;5021947;28;20158;-88
2023/01/31 11:14:20;;;;;;;17.77;5.80;;;;;;;-144.31;100.00;58022.63;5052496;28;20374;-88
2023/01/31 11:17:47;;;;;;;15.00;6.15;;;;;;;-144.31;100.00;58022.63;5043391;28;20049;-87
2023/01/31 11:21:24;;;;;;;23.33;6.47;;;;;;;-144.31;100.00;58022.63;5022469;28;20033;-86
2023/01/31 11:25:00;;;;;;;20.88;5.90;;;;;;;-144.31;100.00;58022.63;5037984;28;20094;-86
2023/01/31 11:28:49;;;;;;;18.73;6.70;;;;;;;-144.31;100.00;58022.63;5049735;28;20059;-87
2023/01/31 11:32:28;;;;;;;19.38;5.80;;;;;;;-144.31;100.00;58022.63;5042269;28;20037;-87
2023/01/31 11:35:55;;;;;;;17.13;5.90;;;;;;;-144.31;100.00;58022.63;5055593;28;20037;-86
2023/01/31 11:39:31;;;;;;;24.30;5.60;;;;;;;-144.31;100.00;58022.63;5060091;28;20048;-87
2023/01/31 11:42:04;;;;;;;18.10;6.85;;;;;;;-144.31;100.00;58022.63;5041788;28;20072;-86
2023/01/31 11:44:33;;;;;;;19.80;6.38;;;;;;;-144.31;100.00;58022.63;5038905;28;20120;-87
2023/01/31 11:48:12;;;;;;;21.15;5.85;;;;;;;-144.31;100.00;58022.63;5038114;28;20103;-87
2023/01/31 11:51:39;;;;;;;19.35;5.85;;;;;;;-144.31;100.00;58022.63;5021599;28;20124;-86
2023/01/31 11:55:06;;;;;;;16.48;5.68;;;;;;;-144.31;100.00;58022.63;5023784;28;20508;-86
2023/01/31 11:58:37;;;;;;;16.90;5.40;;;;;;;-144.31;100.00;58022.63;5042545;28;20116;-87
2023/01/31 12:02:02;;;;;;;15.93;5.03;;;;;;;-144.31;100.00;58022.63;5036703;28;20430;-85
2023/01/31 12:05:41;;;;;;;15.85;4.95;;;;;;;-144.31;100.00;58022.63;5003329;28;20037;-86
2023/01/31 12:09:28;;;;;;;17.58;4.90;;;;;;;-144.31;100.00;58022.63;5010135;28;20034;-85
2023/01/31 12:13:14;;;;;;;11.85;4.35;;;;;;;-144.31;100.00;58022.63;5028154;28;20049;-85
2023/01/31 12:16:45;;;;;;;13.73;4.65;;;;;;;-144.31;100.00;58022.63;5005882;28;20044;-87
2023/01/31 12:20:17;;;;;;;9.95;4.35;;;;;;;-144.31;100.00;58022.63;5047111;28;20040;-88
2023/01/31 12:24:10;;;;;;;17.58;5.05;;;;;;;-144.31;100.00;58022.63;5060765;28;20053;-85
2023/01/31 12:28:02;;;;;;;14.70;4.43;;;;;;;-144.31;100.00;58022.63;5043737;28;20021;-87
2023/01/31 12:31:46;;;;;;;15.38;4.55;;;;;;;-144.31;100.00;58022.63;5043198;28;20037;-87
2023/01/31 12:35:48;;;;;;;16.73;3.95;;;;;;;-144.31;100.00;58022.63;5036567;28;20037;-88
2023/01/31 12:39:50;;;;;;;7.85;2.92;;;;;;;-144.31;100.00;58022.63;5010198;28;20520;-86
2023/01/31 12:43:20;;;;;;;12.55;3.05;;;;;;;-144.31;100.00;58022.63;5015651;28;20382;-87
2023/01/31 12:47:17;;;;;;;9.38;2.60;;;;;;;-144.31;100.00;58022.63;5001396;28;20124;-86
2023/01/31 12:50:51;;;;;;;8.45;2.92;;;;;;;-144.31;100.00;58022.63;5027248;28;20048;-87
2023/01/31 12:54:46;;;;;;;3.85;2.03;;;;;;;-144.31;100.00;58022.63;5016974;28;20069;-87
2023/01/31 12:58:31;;;;;;;7.40;2.78;;;;;;;-144.31;100.00;58022.63;5002274;28;20034;-86
2023/01/31 13:01:49;;;;;;;9.48;3.20;;;;;;;-144.31;100.00;58022.63;5003939;28;20042;-87
2023/01/31 13:05:44;;;;;;;9.30;3.40;;;;;;;-144.31;100.00;58022.63;5031952;28;20820;-87
2023/01/31 13:09:21;;;;;;;7.68;2.95;;;;;;;-144.31;100.00;58022.63;5002834;28;20034;-86
2023/01/31 13:12:51;;;;;;;6.90;3.13;;;;;;;-144.31;100.00;58022.63;5068617;28;20032;-85
2023/01/31 13:21:12;;;;;;;5.57;2.45;;;;;;;-144.31;100.00;58022.63;5022774;28;20056;-87
2023/01/31 13:24:43;;;;;;;7.18;2.40;;;;;;;-144.31;100.00;58022.63;5012908;28;20124;-88
2023/01/31 13:28:14;;;;;;;13.10;3.45;;;;;;;-144.31;100.00;58022.63;5022929;28;20030;-87
2023/01/31 13:32:01;;;;;;;7.95;3.00;;;;;;;-144.31;100.00;58022.63;5026516;28;20052;-88
2023/01/31 13:35:25;;;;;;;;;;;;;;;-144.31;100.00;58022.63;5044189;28;20045;-87
2023/01/31 13:39:01;;;;;;;9.40;3.25;;;;;;;-144.31;100.00;58022.63;5045520;28;20464;-87
2023/01/31 13:42:28;;;;;;;5.80;2.83;;;;;;;-144.31;100.00;58022.63;5040862;28;20029;-88
2023/01/31 13:46:03;;;;;;;7.78;2.65;;;;;;;-144.31;100.00;58022.63;5016985;28;20040;-87
2023/01/31 13:49:56;;;;;;;10.73;3.50;;;;;;;-144.31;100.00;58022.63;5025314;28;20068;-89
2023/01/31 13:53:33;;;;;;;10.65;3.38;;;;;;;-144.31;100.00;58022.63;5047850;28;20064;-87
2023/01/31 13:57:01;;;;;;;6.07;3.33;;;;;;;-144.31;100.00;58022.63;5030607;28;20028;-89
2023/01/31 14:00:40;;;;;;;10.73;3.22;;;;;;;-144.31;100.00;58022.63;5004559;28;20041;-89
2023/01/31 14:04:16;;;;;;;10.35;2.75;;;;;;;-144.31;100.00;58022.63;5009558;28;20033;-86
2023/01/31 14:08:20;;;;;;;12.23;3.72;;;;;;;-144.31;100.00;58022.63;5036076;28;20041;-88
2023/01/31 14:11:33;;;;;;;11.05;3.28;;;;;;;-144.31;100.00;58022.63;5042375;28;20040;-87
2023/01/31 14:14:57;;;;;;;7.90;3.28;;;;;;;-144.31;100.00;58022.63;5057967;28;20024;-88
2023/01/31 14:18:37;;;;;;;13.60;3.33;;;;;;;-144.31;100.00;58022.63;5021415;28;20038;-87
2023/01/31 14:22:02;;;;;;;9.45;2.65;;;;;;;-144.31;100.00;58022.63;5019680;28;20034;-91
2023/01/31 14:25:42;;;;;;;11.20;3.35;;;;;;;-144.31;100.00;58022.63;5038185;28;20030;-87
2023/01/31 14:28:55;;;;;;;10.15;3.30;;;;;;;-144.31;100.00;58022.63;5055450;28;20051;-88
2023/01/31 14:31:30;;;;;;;8.80;3.22;;;;;;;-144.31;100.00;58022.63;5039979;28;20045;-85
2023/01/31 14:33:57;;;;;;;11.18;4.85;;;;;;;-144.31;100.00;58022.63;5057351;28;20033;-88
2023/01/31 14:36:52;;;;;;;9.32;3.17;;;;;;;-144.31;100.00;58022.63;5052605;28;20042;-89
2023/01/31 14:40:08;;;;;;;7.90;3.17;;;;;;;-144.31;100.00;58022.63;5046288;28;20099;-87
2023/01/31 14:43:51;;;;;;;7.25;3.70;;;;;;;-144.31;100.00;58022.63;5056755;28;20128;-87
2023/01/31 14:47:38;;;;;;;12.57;3.83;;;;;;;-144.31;100.00;58022.63;5035697;28;20042;-87
2023/01/31 14:51:04;;;;;;;9.10;3.25;;;;;;;-144.31;100.00;58022.63;5026479;28;20041;-87
2023/01/31 14:55:00;;;;;;;9.35;3.40;;;;;;;-144.31;100.00;58022.63;5021743;28;20021;-88
2023/01/31 14:58:30;;;;;;;7.10;3.05;;;;;;;-144.31;100.00;58022.63;5022377;28;20045;-87
2023/01/31 15:02:18;;;;;;;12.73;3.88;;;;;;;-144.31;100.00;58022.63;5004936;28;20034;-87
2023/01/31 15:05:56;;;;;;;9.43;3.25;;;;;;;-144.31;100.00;58022.63;5037534;28;20060;-88
2023/01/31 15:09:39;;;;;;;7.93;3.50;;;;;;;-144.31;100.00;58022.63;5024854;28;20044;-87
2023/01/31 15:13:45;;;;;;;12.60;4.40;;;;;;;-144.31;100.00;58022.63;5041501;28;20064;-86
2023/01/31 15:17:24;;;;;;;15.35;6.93;;;;;;;-144.31;100.00;58022.63;5041005;28;20390;-87
2023/01/31 15:21:09;;;;;;;25.42;9.05;;;;;;;-144.31;100.00;58022.63;5040519;28;20394;-89
2023/01/31 15:24:39;;;;;;;79.13;22.60;;;;;;;-144.31;100.00;58022.63;5042166;28;20116;-90
2023/01/31 15:28:14;;;;;;;19.48;7.85;;;;;;;-144.31;100.00;58022.63;5052246;28;20486;-88
2023/01/31 15:31:43;;;;;;;15.23;5.40;;;;;;;-144.31;100.00;58022.63;5045455;28;20037;-88
2023/01/31 15:35:51;;;;;;;19.98;6.13;;;;;;;-144.31;100.00;58022.63;5023751;28;20124;-87
2023/01/31 15:44:23;;;;;;;56.03;18.05;;;;;;;-144.31;100.00;58022.63;5024338;28;20037;-88
2023/01/31 15:48:05;;;;;;;72.47;22.88;;;;;;;-144.31;100.00;58022.63;5008743;28;20052;-89
2023/01/31 15:51:30;;;;;;;83.50;26.10;;;;;;;-144.31;100.00;58022.63;5010756;28;20045;-89
2023/01/31 15:55:17;;;;;;;138.48;41.33;;;;;;;-144.31;100.00;58022.63;5025816;28;20474;-88
2023/01/31 15:58:51;;;;;;;35.10;14.68;;;;;;;-144.31;100.00;58022.63;5015405;28;20033;-87
2023/01/31 16:02:21;;;;;;;35.22;15.30;;;;;;;-144.31;100.00;58022.63;5029199;28;20064;-86
2023/01/31 16:05:50;;;;;;;62.35;25.88;;;;;;;-144.31;100.00;58022.63;5046018;28;20121;-87
2023/01/31 16:09:26;;;;;;;38.75;15.13;;;;;;;-144.31;100.00;58022.63;5022188;28;20072;-87
2023/01/31 16:12:52;;;;;;;76.47;32.03;;;;;;;-144.31;100.00;58022.63;5011425;28;20073;-86
2023/01/31 16:16:14;;;;;;;16.73;9.60;;;;;;;-144.31;100.00;58022.63;5027574;28;20040;-86
2023/01/31 16:19:42;;;;;;;38.90;21.08;;;;;;;-144.31;100.00;58022.63;5012994;28;20050;-85